createdAt,value
2022-12-18T00:01:34.099Z,-70
2022-12-18T00:04:09.442Z,-68
2022-12-18T00:06:37.876Z,-69
2022-12-18T00:09:06.068Z,-69
2022-12-18T00:11:34.432Z,-70
2022-12-18T00:14:02.745Z,-69
2022-12-18T00:16:33.859Z,-69
2022-12-18T00:19:04.087Z,-68
2022-12-18T00:21:34.251Z,-69
2022-12-18T00:24:02.946Z,-69
2022-12-18T00:26:33.887Z,-70
2022-12-18T00:29:05.299Z,-68
2022-12-18T00:31:34.882Z,-70
2022-12-18T00:34:04.672Z,-70
2022-12-18T00:36:35.215Z,-70
2022-12-18T00:39:06.771Z,-70
2022-12-18T00:41:52.440Z,-69
2022-12-18T00:44:21.550Z,-69
2022-12-18T00:46:50.190Z,-69
2022-12-18T00:49:22.073Z,-69
2022-12-18T00:51:50.764Z,-69
2022-12-18T00:54:19.553Z,-69
2022-12-18T00:56:49.827Z,-71
2022-12-18T00:59:18.694Z,-70
2022-12-18T01:01:47.807Z,-70
2022-12-18T01:04:16.661Z,-69
2022-12-18T01:06:46.176Z,-70
2022-12-18T01:09:14.721Z,-69
2022-12-18T01:11:42.893Z,-69
2022-12-18T01:14:11.248Z,-70
2022-12-18T01:16:39.415Z,-69
2022-12-18T01:19:07.826Z,-66
2022-12-18T01:21:36.681Z,-69
2022-12-18T01:24:07.947Z,-69
2022-12-18T01:26:35.995Z,-69
2022-12-18T01:29:04.285Z,-70
2022-12-18T01:31:35.318Z,-71
2022-12-18T01:34:04.425Z,-69
2022-12-18T01:36:35.121Z,-69
2022-12-18T01:39:10.308Z,-69
2022-12-18T01:41:52.764Z,-69
2022-12-18T01:45:00.850Z,-68
2022-12-18T01:47:36.744Z,-69
2022-12-18T01:50:15.085Z,-69
2022-12-18T01:52:46.817Z,-70
2022-12-18T01:55:21.425Z,-70
2022-12-18T01:57:51.528Z,-70
2022-12-18T02:00:23.218Z,-69
2022-12-18T02:02:51.861Z,-68
2022-12-18T02:05:26.823Z,-69
2022-12-18T02:08:10.356Z,-70
2022-12-18T02:10:50.309Z,-69
2022-12-18T02:13:27.849Z,-69
2022-12-18T02:16:07.645Z,-70
2022-12-18T02:18:42.994Z,-69
2022-12-18T02:21:27.388Z,-70
2022-12-18T02:24:13.441Z,-70
2022-12-18T02:26:50.695Z,-70
2022-12-18T02:29:28.316Z,-69
2022-12-18T02:32:04.272Z,-70
2022-12-18T02:34:37.125Z,-69
2022-12-18T02:37:11.653Z,-69
2022-12-18T02:39:45.199Z,-69
2022-12-18T02:42:15.540Z,-69
2022-12-18T02:44:48.998Z,-69
2022-12-18T02:47:20.649Z,-70
2022-12-18T02:50:04.342Z,-69
2022-12-18T02:52:42.519Z,-69
2022-12-18T02:55:28.975Z,-70
2022-12-18T02:58:07.651Z,-68
2022-12-18T03:00:43.849Z,-69
2022-12-18T03:03:20.631Z,-68
2022-12-18T03:05:58.633Z,-68
2022-12-18T03:08:30.966Z,-69
2022-12-18T03:11:04.855Z,-71
2022-12-18T03:13:41.763Z,-69
2022-12-18T03:16:14.295Z,-69
2022-12-18T03:18:50.162Z,-69
2022-12-18T03:21:25.079Z,-70
2022-12-18T03:23:55.460Z,-69
2022-12-18T03:26:27.916Z,-70
2022-12-18T03:29:06.880Z,-69
2022-12-18T03:31:39.730Z,-69
2022-12-18T03:34:16.248Z,-67
2022-12-18T03:36:44.692Z,-69
2022-12-18T03:39:12.909Z,-69
2022-12-18T03:41:49.706Z,-69
2022-12-18T03:44:30.065Z,-70
2022-12-18T03:47:08.791Z,-69
2022-12-18T03:49:44.542Z,-70
2022-12-18T03:52:23.820Z,-68
2022-12-18T03:54:53.325Z,-68
2022-12-18T03:57:28.052Z,-68
2022-12-18T04:00:03.618Z,-71
2022-12-18T04:02:35.796Z,-70
2022-12-18T04:05:08.727Z,-70
2022-12-18T04:07:38.266Z,-69
2022-12-18T04:10:10.365Z,-69
2022-12-18T04:12:40.128Z,-69
2022-12-18T04:15:11.604Z,-70
2022-12-18T04:17:40.910Z,-69
2022-12-18T04:20:10.455Z,-70
2022-12-18T04:22:38.580Z,-69
2022-12-18T04:25:07.738Z,-69
2022-12-18T04:27:36.126Z,-70
2022-12-18T04:30:05.614Z,-68
2022-12-18T04:32:36.114Z,-69
2022-12-18T04:35:05.145Z,-69
2022-12-18T04:37:33.269Z,-69
2022-12-18T04:40:01.333Z,-70
2022-12-18T04:42:29.440Z,-69
2022-12-18T04:44:57.499Z,-69
2022-12-18T04:47:25.625Z,-69
2022-12-18T04:49:55.036Z,-70
2022-12-18T04:52:25.818Z,-68
2022-12-18T04:54:53.959Z,-69
2022-12-18T04:57:22.043Z,-68
2022-12-18T04:59:50.432Z,-69
2022-12-18T05:02:18.703Z,-70
2022-12-18T05:04:46.844Z,-68
2022-12-18T05:07:16.655Z,-68
2022-12-18T05:09:44.763Z,-69
2022-12-18T05:12:13.392Z,-70
2022-12-18T05:14:41.484Z,-70
2022-12-18T05:17:09.965Z,-70
2022-12-18T05:19:41.095Z,-68
2022-12-18T05:22:12.112Z,-70
2022-12-18T05:24:41.867Z,-70
2022-12-18T05:27:10.001Z,-70
2022-12-18T05:29:38.086Z,-69
2022-12-18T05:32:06.593Z,-69
2022-12-18T05:34:34.768Z,-69
2022-12-18T05:37:02.959Z,-69
2022-12-18T05:39:31.280Z,-69
2022-12-18T05:42:00.718Z,-69
2022-12-18T05:44:28.824Z,-68
2022-12-18T05:46:57.063Z,-68
2022-12-18T05:49:25.194Z,-69
2022-12-18T05:51:53.378Z,-70
2022-12-18T05:54:21.541Z,-70
2022-12-18T05:56:49.614Z,-70
2022-12-18T05:59:19.067Z,-71
2022-12-18T06:01:47.448Z,-69
2022-12-18T06:04:15.712Z,-69
2022-12-18T06:06:43.860Z,-69
2022-12-18T06:09:12.813Z,-69
2022-12-18T06:11:41.562Z,-70
2022-12-18T06:14:11.888Z,-70
2022-12-18T06:16:41.363Z,-69
2022-12-18T06:19:09.461Z,-69
2022-12-18T06:21:37.698Z,-69
2022-12-18T06:24:06.822Z,-69
2022-12-18T06:26:35.319Z,-70
2022-12-18T06:29:03.407Z,-70
2022-12-18T06:31:31.521Z,-70
2022-12-18T06:34:01.025Z,-69
2022-12-18T06:36:32.463Z,-70
2022-12-18T06:39:01.177Z,-69
2022-12-18T06:41:29.331Z,-69
2022-12-18T06:43:59.940Z,-70
2022-12-18T06:46:28.649Z,-70
2022-12-18T06:48:56.784Z,-70
2022-12-18T06:51:27.293Z,-70
2022-12-18T06:53:55.409Z,-70
2022-12-18T06:56:24.039Z,-69
2022-12-18T06:58:52.133Z,-68
2022-12-18T07:01:20.596Z,-70
2022-12-18T07:03:49.269Z,-68
2022-12-18T07:06:20.300Z,-70
2022-12-18T07:08:50.998Z,-68
2022-12-18T07:11:20.228Z,-69
2022-12-18T07:13:49.539Z,-68
2022-12-18T07:16:24.870Z,-68
2022-12-18T07:18:54.218Z,-70
2022-12-18T07:21:24.330Z,-71
2022-12-18T07:23:54.115Z,-71
2022-12-18T07:26:23.813Z,-69
2022-12-18T07:28:52.573Z,-69
2022-12-18T07:31:23.904Z,-70
2022-12-18T07:33:53.265Z,-70
2022-12-18T07:36:24.687Z,-70
2022-12-18T07:38:54.424Z,-69
2022-12-18T07:41:22.969Z,-70
2022-12-18T07:43:51.142Z,-69
2022-12-18T07:46:19.573Z,-70
2022-12-18T07:48:50.086Z,-69
2022-12-18T07:51:19.801Z,-70
2022-12-18T07:53:49.672Z,-70
2022-12-18T07:56:31.177Z,-71
2022-12-18T07:59:00.716Z,-68
2022-12-18T08:01:29.336Z,-70
2022-12-18T08:03:59.628Z,-69
2022-12-18T08:06:27.952Z,-68
2022-12-18T08:08:58.110Z,-68
2022-12-18T08:11:30.734Z,-70
2022-12-18T08:13:59.848Z,-69
2022-12-18T08:16:28.554Z,-69
2022-12-18T08:18:57.092Z,-69
2022-12-18T08:21:28.632Z,-70
2022-12-18T08:24:00.032Z,-70
2022-12-18T08:26:32.565Z,-70
2022-12-18T08:29:02.370Z,-70
2022-12-18T08:31:32.557Z,-70
2022-12-18T08:34:00.831Z,-70
2022-12-18T08:36:28.926Z,-69
2022-12-18T08:38:58.140Z,-69
2022-12-18T08:41:27.190Z,-71
2022-12-18T08:44:14.193Z,-69
2022-12-18T08:46:45.327Z,-70
2022-12-18T08:49:14.235Z,-69
2022-12-18T08:51:42.425Z,-69
2022-12-18T08:54:15.984Z,-69
2022-12-18T08:56:44.139Z,-69
2022-12-18T08:59:19.407Z,-69
2022-12-18T09:01:49.269Z,-70
2022-12-18T09:04:17.961Z,-69
2022-12-18T09:06:46.096Z,-70
2022-12-18T09:09:14.527Z,-70
2022-12-18T09:11:42.628Z,-71
2022-12-18T09:14:13.432Z,-68
2022-12-18T09:16:41.710Z,-71
2022-12-18T09:19:11.757Z,-71
2022-12-18T09:21:46.160Z,-71
2022-12-18T09:24:17.894Z,-71
2022-12-18T09:26:47.290Z,-71
2022-12-18T09:29:18.962Z,-70
2022-12-18T09:31:47.730Z,-69
2022-12-18T09:34:15.981Z,-70
2022-12-18T09:36:44.404Z,-71
2022-12-18T09:39:12.551Z,-69
2022-12-18T09:41:48.275Z,-70
2022-12-18T09:44:25.654Z,-68
2022-12-18T09:47:05.266Z,-70
2022-12-18T09:49:39.374Z,-70
2022-12-18T09:52:17.087Z,-67
2022-12-18T09:54:50.048Z,-74
2022-12-18T09:57:25.404Z,-69
2022-12-18T10:00:03.999Z,-72
2022-12-18T10:02:33.729Z,-70
2022-12-18T10:05:12.437Z,-70
2022-12-18T10:08:01.530Z,-70
2022-12-18T10:10:40.520Z,-70
2022-12-18T10:13:23.770Z,-69
2022-12-18T10:16:16.223Z,-68
2022-12-18T10:19:06.166Z,-70
2022-12-18T10:21:44.054Z,-69
2022-12-18T10:24:28.717Z,-70
2022-12-18T10:27:10.437Z,-71
2022-12-18T10:29:39.333Z,-69
2022-12-18T10:32:15.370Z,-70
2022-12-18T10:34:47.247Z,-70
2022-12-18T10:37:20.394Z,-69
2022-12-18T10:40:06.468Z,-69
2022-12-18T10:42:35.020Z,-71
2022-12-18T10:45:10.769Z,-70
2022-12-18T10:47:46.873Z,-69
2022-12-18T10:50:47.145Z,-72
2022-12-18T10:53:23.661Z,-69
2022-12-18T10:55:55.478Z,-70
2022-12-18T10:58:28.957Z,-68
2022-12-18T11:01:11.749Z,-69
2022-12-18T11:03:45.522Z,-69
2022-12-18T11:06:16.873Z,-71
2022-12-18T11:08:58.937Z,-69
2022-12-18T11:11:27.739Z,-68
2022-12-18T11:14:04.365Z,-67
2022-12-18T11:16:38.468Z,-71
2022-12-18T11:19:25.336Z,-69
2022-12-18T11:21:53.606Z,-67
2022-12-18T11:24:30.024Z,-66
2022-12-18T11:27:00.379Z,-69
2022-12-18T11:29:43.263Z,-67
2022-12-18T11:32:39.296Z,-67
2022-12-18T11:35:22.528Z,-68
2022-12-18T11:37:58.603Z,-66
2022-12-18T11:40:41.042Z,-68
2022-12-18T11:43:17.553Z,-66
2022-12-18T11:45:54.638Z,-67
2022-12-18T11:48:29.560Z,-68
2022-12-18T11:51:02.349Z,-67
2022-12-18T11:53:32.476Z,-67
2022-12-18T11:56:28.912Z,-68
2022-12-18T11:59:17.503Z,-67
2022-12-18T12:01:54.404Z,-65
2022-12-18T12:04:50.058Z,-66
2022-12-18T12:07:40.676Z,-67
2022-12-18T12:10:27.573Z,-67
2022-12-18T12:13:21.295Z,-67
2022-12-18T12:16:05.139Z,-65
2022-12-18T12:18:51.990Z,-67
2022-12-18T12:21:30.449Z,-67
2022-12-18T12:24:20.849Z,-67
2022-12-18T12:27:04.946Z,-66
2022-12-18T12:29:52.062Z,-67
2022-12-18T12:32:38.613Z,-67
2022-12-18T12:35:23.263Z,-67
2022-12-18T12:38:07.147Z,-66
2022-12-18T12:40:53.458Z,-66
2022-12-18T12:43:34.609Z,-66
2022-12-18T12:46:07.472Z,-66
2022-12-18T12:48:44.705Z,-67
2022-12-18T12:51:21.492Z,-66
2022-12-18T12:53:50.991Z,-66
2022-12-18T12:56:23.214Z,-66
2022-12-18T12:59:13.204Z,-67
2022-12-18T13:01:55.492Z,-66
2022-12-18T13:04:38.290Z,-65
2022-12-18T13:07:18.387Z,-66
2022-12-18T13:10:34.864Z,-66
2022-12-18T13:13:09.032Z,-66
2022-12-18T13:15:42.476Z,-66
2022-12-18T13:18:21.497Z,-66
2022-12-18T13:20:56.494Z,-67
2022-12-18T13:23:37.495Z,-67
2022-12-18T13:26:34.079Z,-66
2022-12-18T13:29:05.477Z,-66
2022-12-18T13:32:22.015Z,-67
2022-12-18T13:35:11.395Z,-67
2022-12-18T13:37:45.818Z,-66
2022-12-18T13:40:57.254Z,-66
2022-12-18T13:43:45.325Z,-66
2022-12-18T13:46:27.914Z,-67
2022-12-18T13:49:05.442Z,-66
2022-12-18T13:51:37.210Z,-67
2022-12-18T13:54:25.940Z,-67
2022-12-18T13:56:54.261Z,-67
2022-12-18T13:59:25.194Z,-67
2022-12-18T14:01:58.038Z,-65
2022-12-18T14:04:30.265Z,-66
2022-12-18T14:07:04.921Z,-66
2022-12-18T14:09:37.966Z,-65
2022-12-18T14:12:26.599Z,-67
2022-12-18T14:14:55.716Z,-66
2022-12-18T14:17:25.984Z,-66
2022-12-18T14:19:54.945Z,-66
2022-12-18T14:22:30.435Z,-66
2022-12-18T14:25:18.360Z,-66
2022-12-18T14:27:49.580Z,-65
2022-12-18T14:30:33.508Z,-65
2022-12-18T14:33:12.369Z,-65
2022-12-18T14:35:43.444Z,-66
2022-12-18T14:38:25.155Z,-66
2022-12-18T14:41:00.925Z,-65
2022-12-18T14:43:31.360Z,-66
2022-12-18T14:46:01.033Z,-66
2022-12-18T14:48:40.760Z,-66
2022-12-18T14:51:18.431Z,-66
2022-12-18T14:53:54.423Z,-66
2022-12-18T14:56:26.383Z,-67
2022-12-18T14:58:58.933Z,-66
2022-12-18T15:01:31.886Z,-66
2022-12-18T15:04:03.967Z,-67
2022-12-18T15:06:39.543Z,-66
2022-12-18T15:09:25.423Z,-66
2022-12-18T15:11:59.260Z,-66
2022-12-18T15:14:41.732Z,-66
2022-12-18T15:17:21.721Z,-68
2022-12-18T15:19:56.009Z,-67
2022-12-18T15:22:29.710Z,-68
2022-12-18T15:25:00.157Z,-65
2022-12-18T15:27:33.135Z,-65
2022-12-18T15:30:23.170Z,-67
2022-12-18T15:32:52.364Z,-66
2022-12-18T15:35:25.198Z,-65
2022-12-18T15:37:54.256Z,-65
2022-12-18T15:40:25.264Z,-66
2022-12-18T15:43:14.639Z,-65
2022-12-18T15:45:42.788Z,-65
2022-12-18T15:48:22.755Z,-67
2022-12-18T15:50:56.472Z,-67
2022-12-18T15:53:25.638Z,-66
2022-12-18T15:56:11.339Z,-67
2022-12-18T15:58:39.500Z,-67
2022-12-18T16:01:10.771Z,-66
2022-12-18T16:03:39.293Z,-65
2022-12-18T16:06:11.305Z,-66
2022-12-18T16:08:39.535Z,-67
2022-12-18T16:11:38.684Z,-65
2022-12-18T16:14:14.816Z,-66
2022-12-18T16:16:43.345Z,-67
2022-12-18T16:19:11.410Z,-66
2022-12-18T16:21:40.995Z,-66
2022-12-18T16:24:17.770Z,-65
2022-12-18T16:26:46.678Z,-67
2022-12-18T16:29:14.787Z,-67
2022-12-18T16:31:43.802Z,-64
2022-12-18T16:34:23.969Z,-67
2022-12-18T16:37:04.839Z,-65
2022-12-18T16:39:34.985Z,-65
2022-12-18T16:42:05.705Z,-67
2022-12-18T16:44:34.426Z,-66
2022-12-18T16:47:03.865Z,-68
2022-12-18T16:49:32.201Z,-65
2022-12-18T16:52:05.111Z,-66
2022-12-18T16:54:34.962Z,-65
2022-12-18T16:57:03.083Z,-67
2022-12-18T16:59:31.189Z,-67
2022-12-18T17:02:00.284Z,-66
2022-12-18T17:04:28.606Z,-66
2022-12-18T17:06:56.960Z,-66
2022-12-18T17:09:26.432Z,-66
2022-12-18T17:11:55.454Z,-66
2022-12-18T17:14:25.981Z,-66
2022-12-18T17:17:19.697Z,-66
2022-12-18T17:19:44.914Z,-66
2022-12-18T17:22:12.954Z,-67
2022-12-18T17:24:42.346Z,-67
2022-12-18T17:27:10.400Z,-67
2022-12-18T17:29:43.878Z,-67
2022-12-18T17:32:15.378Z,-66
2022-12-18T17:34:43.504Z,-67
2022-12-18T17:37:11.644Z,-66
2022-12-18T17:39:40.427Z,-66
2022-12-18T17:42:15.055Z,-66
2022-12-18T17:44:44.192Z,-65
2022-12-18T17:47:12.924Z,-66
2022-12-18T17:49:41.099Z,-66
2022-12-18T17:52:09.483Z,-67
2022-12-18T17:54:39.612Z,-67
2022-12-18T17:57:09.249Z,-66
2022-12-18T17:59:37.436Z,-67
2022-12-18T18:02:05.802Z,-67
2022-12-18T18:04:34.606Z,-69
2022-12-18T18:07:02.999Z,-67
2022-12-18T18:09:31.166Z,-68
2022-12-18T18:12:18.076Z,-66
2022-12-18T18:14:47.522Z,-66
2022-12-18T18:17:15.760Z,-67
2022-12-18T18:19:46.785Z,-68
2022-12-18T18:22:18.034Z,-67
2022-12-18T18:24:47.997Z,-67
2022-12-18T18:27:16.737Z,-67
2022-12-18T18:29:44.940Z,-67
2022-12-18T18:32:14.375Z,-68
2022-12-18T18:34:42.655Z,-66
2022-12-18T18:37:12.079Z,-66
2022-12-18T18:39:40.486Z,-67
2022-12-18T18:42:08.725Z,-67
2022-12-18T18:44:36.799Z,-66
2022-12-18T18:47:07.418Z,-67
2022-12-18T18:49:39.111Z,-67
2022-12-18T18:52:08.154Z,-67
2022-12-18T18:54:36.339Z,-67
2022-12-18T18:57:20.410Z,-66
2022-12-18T18:59:49.009Z,-67
2022-12-18T19:02:18.917Z,-67
2022-12-18T19:04:48.520Z,-67
2022-12-18T19:07:29.765Z,-67
2022-12-18T19:10:04.700Z,-67
2022-12-18T19:12:52.385Z,-69
2022-12-18T19:15:21.183Z,-67
2022-12-18T19:17:49.283Z,-67
2022-12-18T19:20:19.019Z,-68
2022-12-18T19:22:50.956Z,-67
2022-12-18T19:25:38.232Z,-68
2022-12-18T19:28:15.834Z,-67
2022-12-18T19:30:53.573Z,-66
2022-12-18T19:33:45.966Z,-67
2022-12-18T19:36:21.087Z,-69
2022-12-18T19:38:50.933Z,-68
2022-12-18T19:41:20.895Z,-65
2022-12-18T19:43:50.948Z,-65
2022-12-18T19:46:22.533Z,-69
2022-12-18T19:48:51.949Z,-68
2022-12-18T19:51:24.960Z,-69
2022-12-18T19:53:58.470Z,-68
2022-12-18T19:56:30.784Z,-67
2022-12-18T19:58:59.092Z,-69
2022-12-18T20:01:29.129Z,-68
2022-12-18T20:03:58.355Z,-69
2022-12-18T20:06:31.930Z,-69
2022-12-18T20:09:03.924Z,-69
2022-12-18T20:11:40.125Z,-66
2022-12-18T20:14:10.480Z,-65
2022-12-18T20:16:38.748Z,-66
2022-12-18T20:19:08.159Z,-67
2022-12-18T20:21:38.125Z,-67
2022-12-18T20:24:08.303Z,-69
2022-12-18T20:26:36.554Z,-69
2022-12-18T20:29:04.753Z,-63
2022-12-18T20:31:32.903Z,-62
2022-12-18T20:34:02.668Z,-62
2022-12-18T20:36:34.119Z,-66
2022-12-18T20:39:06.501Z,-65
2022-12-18T20:41:38.187Z,-65
2022-12-18T20:44:22.003Z,-66
2022-12-18T20:46:54.475Z,-65
2022-12-18T20:49:23.344Z,-66
2022-12-18T20:51:53.394Z,-65
2022-12-18T20:54:24.861Z,-65
2022-12-18T20:56:53.473Z,-66
2022-12-18T20:59:23.071Z,-66
2022-12-18T21:01:52.023Z,-65
2022-12-18T21:04:20.733Z,-64
2022-12-18T21:06:54.134Z,-62
2022-12-18T21:09:37.173Z,-63
2022-12-18T21:12:29.308Z,-65
2022-12-18T21:14:59.432Z,-63
2022-12-18T21:17:27.683Z,-68
2022-12-18T21:19:57.519Z,-68
2022-12-18T21:22:26.825Z,-68
2022-12-18T21:24:56.203Z,-66
2022-12-18T21:27:24.427Z,-69
2022-12-18T21:29:52.991Z,-68
2022-12-18T21:32:21.154Z,-68
2022-12-18T21:34:53.003Z,-67
2022-12-18T21:37:21.092Z,-69
2022-12-18T21:39:49.168Z,-69
2022-12-18T21:42:36.026Z,-67
2022-12-18T21:45:04.362Z,-69
2022-12-18T21:47:32.465Z,-69
2022-12-18T21:50:00.533Z,-69
2022-12-18T21:52:32.605Z,-68
2022-12-18T21:55:08.413Z,-69
2022-12-18T21:57:39.661Z,-69
2022-12-18T22:00:18.546Z,-68
2022-12-18T22:03:03.401Z,-68
2022-12-18T22:05:36.755Z,-69
2022-12-18T22:08:06.620Z,-70
2022-12-18T22:10:35.167Z,-68
2022-12-18T22:13:04.969Z,-68
2022-12-18T22:15:33.515Z,-68
2022-12-18T22:18:02.013Z,-68
2022-12-18T22:20:30.385Z,-67
2022-12-18T22:22:58.758Z,-70
2022-12-18T22:25:29.267Z,-68
2022-12-18T22:28:14.731Z,-68
2022-12-18T22:30:45.669Z,-69
2022-12-18T22:33:13.835Z,-68
2022-12-18T22:35:42.228Z,-68
2022-12-18T22:38:11.758Z,-68
2022-12-18T22:40:39.935Z,-68
2022-12-18T22:43:08.025Z,-65
2022-12-18T22:45:38.531Z,-68
2022-12-18T22:48:08.580Z,-68
2022-12-18T22:50:36.739Z,-68
2022-12-18T22:53:04.847Z,-68
2022-12-18T22:55:32.988Z,-69
2022-12-18T22:58:01.167Z,-69
2022-12-18T23:00:29.294Z,-68
2022-12-18T23:03:00.563Z,-68
2022-12-18T23:05:32.015Z,-69
2022-12-18T23:08:00.737Z,-68
2022-12-18T23:10:29.075Z,-69
2022-12-18T23:12:57.203Z,-68
2022-12-18T23:15:28.149Z,-69
2022-12-18T23:17:58.775Z,-69
2022-12-18T23:20:28.283Z,-70
2022-12-18T23:22:57.752Z,-68
2022-12-18T23:25:25.964Z,-69
2022-12-18T23:27:54.086Z,-69
2022-12-18T23:30:22.253Z,-67
2022-12-18T23:32:50.537Z,-67
2022-12-18T23:35:19.140Z,-69
2022-12-18T23:38:04.436Z,-68
2022-12-18T23:40:34.092Z,-69
2022-12-18T23:43:02.189Z,-69
2022-12-18T23:45:30.510Z,-69
2022-12-18T23:47:58.632Z,-68
2022-12-18T23:50:29.259Z,-69
2022-12-18T23:53:04.941Z,-68
2022-12-18T23:55:40.647Z,-67
2022-12-18T23:58:16.594Z,-67
